sensor_id;sensor_type;location;lat;lon;timestamp;pressure;altitude;pressure_sealevel;temperature;humidity
52735;BME280;38631;47.572;10.704;2023-06-22T00:04:01;92636.09;;;19.86;93.28
52735;BME280;38631;47.572;10.704;2023-06-22T00:06:29;92658.78;;;19.85;94.09
52735;BME280;38631;47.572;10.704;2023-06-22T00:08:55;92648.94;;;19.96;92.10
52735;BME280;38631;47.572;10.704;2023-06-22T00:11:23;92647.91;;;19.58;94.82
52735;BME280;38631;47.572;10.704;2023-06-22T00:13:49;92653.63;;;19.34;95.44
52735;BME280;38631;47.572;10.704;2023-06-22T00:16:16;92639.13;;;19.61;94.32
52735;BME280;38631;47.572;10.704;2023-06-22T00:18:41;92651.34;;;19.36;96.05
52735;BME280;38631;47.572;10.704;2023-06-22T00:21:12;92651.22;;;19.29;96.14
52735;BME280;38631;47.572;10.704;2023-06-22T00:23:41;92655.41;;;19.26;96.40
52735;BME280;38631;47.572;10.704;2023-06-22T00:26:07;92640.94;;;19.34;96.53
52735;BME280;38631;47.572;10.704;2023-06-22T00:28:34;92651.63;;;19.31;96.25
52735;BME280;38631;47.572;10.704;2023-06-22T00:31:12;92644.44;;;19.58;95.11
52735;BME280;38631;47.572;10.704;2023-06-22T00:33:37;92635.66;;;18.99;98.72
52735;BME280;38631;47.572;10.704;2023-06-22T00:36:04;92640.47;;;19.29;96.41
52735;BME280;38631;47.572;10.704;2023-06-22T00:38:33;92652.94;;;19.17;97.73
52735;BME280;38631;47.572;10.704;2023-06-22T00:41:05;92639.25;;;19.69;93.63
52735;BME280;38631;47.572;10.704;2023-06-22T00:43:36;92640.41;;;19.91;92.72
52735;BME280;38631;47.572;10.704;2023-06-22T00:46:08;92621.50;;;19.45;94.35
52735;BME280;38631;47.572;10.704;2023-06-22T00:48:37;92624.34;;;19.32;95.40
52735;BME280;38631;47.572;10.704;2023-06-22T00:51:12;92618.81;;;19.02;96.79
52735;BME280;38631;47.572;10.704;2023-06-22T00:53:41;92619.06;;;19.16;95.76
52735;BME280;38631;47.572;10.704;2023-06-22T00:56:08;92610.91;;;19.32;94.80
52735;BME280;38631;47.572;10.704;2023-06-22T00:58:43;92601.28;;;19.12;95.43
52735;BME280;38631;47.572;10.704;2023-06-22T01:01:09;92598.50;;;19.51;93.22
52735;BME280;38631;47.572;10.704;2023-06-22T01:03:36;92609.06;;;19.59;93.57
52735;BME280;38631;47.572;10.704;2023-06-22T01:06:13;92592.81;;;19.56;93.02
52735;BME280;38631;47.572;10.704;2023-06-22T01:08:57;92601.28;;;19.31;93.43
52735;BME280;38631;47.572;10.704;2023-06-22T01:11:38;92597.16;;;19.18;95.05
52735;BME280;38631;47.572;10.704;2023-06-22T01:14:41;92589.16;;;19.21;95.51
52735;BME280;38631;47.572;10.704;2023-06-22T01:17:13;92587.47;;;18.74;96.94
52735;BME280;38631;47.572;10.704;2023-06-22T01:19:48;92584.88;;;18.97;96.08
52735;BME280;38631;47.572;10.704;2023-06-22T01:22:26;92579.16;;;18.99;95.61
52735;BME280;38631;47.572;10.704;2023-06-22T01:25:16;92586.50;;;19.02;95.88
52735;BME280;38631;47.572;10.704;2023-06-22T01:30:22;92581.56;;;19.27;93.57
52735;BME280;38631;47.572;10.704;2023-06-22T01:32:53;92563.91;;;18.87;95.44
52735;BME280;38631;47.572;10.704;2023-06-22T01:35:28;92570.22;;;18.95;95.59
52735;BME280;38631;47.572;10.704;2023-06-22T01:38:02;92580.41;;;18.86;95.70
52735;BME280;38631;47.572;10.704;2023-06-22T01:40:33;92588.31;;;18.59;97.45
52735;BME280;38631;47.572;10.704;2023-06-22T01:43:06;92588.25;;;18.75;96.33
52735;BME280;38631;47.572;10.704;2023-06-22T01:45:41;92594.28;;;18.88;95.91
52735;BME280;38631;47.572;10.704;2023-06-22T01:48:10;92592.22;;;18.07;99.81
52735;BME280;38631;47.572;10.704;2023-06-22T01:50:36;92595.69;;;17.91;100.00
52735;BME280;38631;47.572;10.704;2023-06-22T01:53:02;92589.59;;;18.10;100.00
52735;BME280;38631;47.572;10.704;2023-06-22T01:55:30;92604.16;;;18.45;98.57
52735;BME280;38631;47.572;10.704;2023-06-22T01:58:04;92605.78;;;18.49;98.35
52735;BME280;38631;47.572;10.704;2023-06-22T02:00:33;92597.44;;;17.84;100.00
52735;BME280;38631;47.572;10.704;2023-06-22T02:03:16;92607.16;;;17.88;100.00
52735;BME280;38631;47.572;10.704;2023-06-22T02:06:04;92616.44;;;18.26;98.72
52735;BME280;38631;47.572;10.704;2023-06-22T02:08:49;92620.19;;;18.22;98.95
52735;BME280;38631;47.572;10.704;2023-06-22T02:11:24;92621.59;;;18.51;97.72
52735;BME280;38631;47.572;10.704;2023-06-22T02:13:53;92630.53;;;18.04;100.00
52735;BME280;38631;47.572;10.704;2023-06-22T02:16:21;92614.47;;;18.07;100.00
52735;BME280;38631;47.572;10.704;2023-06-22T02:18:50;92642.63;;;18.65;97.25
52735;BME280;38631;47.572;10.704;2023-06-22T02:21:23;92639.25;;;18.87;94.95
52735;BME280;38631;47.572;10.704;2023-06-22T02:23:52;92643.59;;;18.56;96.52
52735;BME280;38631;47.572;10.704;2023-06-22T02:26:18;92632.84;;;18.05;100.00
52735;BME280;38631;47.572;10.704;2023-06-22T02:28:46;92637.13;;;17.90;100.00
52735;BME280;38631;47.572;10.704;2023-06-22T02:31:21;92645.25;;;18.10;99.95
52735;BME280;38631;47.572;10.704;2023-06-22T02:33:47;92642.06;;;18.40;98.70
52735;BME280;38631;47.572;10.704;2023-06-22T02:36:16;92647.22;;;18.64;96.75
52735;BME280;38631;47.572;10.704;2023-06-22T02:38:45;92646.56;;;17.84;100.00
52735;BME280;38631;47.572;10.704;2023-06-22T02:41:17;92642.00;;;18.01;100.00
52735;BME280;38631;47.572;10.704;2023-06-22T02:43:48;92657.72;;;18.34;99.44
52735;BME280;38631;47.572;10.704;2023-06-22T02:46:21;92648.06;;;18.49;97.60
52735;BME280;38631;47.572;10.704;2023-06-22T02:48:50;92646.91;;;17.99;100.00
52735;BME280;38631;47.572;10.704;2023-06-22T02:51:21;92644.91;;;17.96;100.00
52735;BME280;38631;47.572;10.704;2023-06-22T02:53:51;92646.47;;;18.12;100.00
52735;BME280;38631;47.572;10.704;2023-06-22T02:56:17;92645.53;;;17.29;100.00
52735;BME280;38631;47.572;10.704;2023-06-22T02:58:50;92641.25;;;17.56;100.00
52735;BME280;38631;47.572;10.704;2023-06-22T03:01:16;92645.53;;;17.89;100.00
52735;BME280;38631;47.572;10.704;2023-06-22T03:03:54;92649.00;;;17.30;100.00
52735;BME280;38631;47.572;10.704;2023-06-22T03:06:21;92643.50;;;17.54;100.00
52735;BME280;38631;47.572;10.704;2023-06-22T03:08:58;92639.97;;;17.98;100.00
52735;BME280;38631;47.572;10.704;2023-06-22T03:11:24;92640.44;;;17.84;100.00
52735;BME280;38631;47.572;10.704;2023-06-22T03:13:53;92654.69;;;18.20;98.98
52735;BME280;38631;47.572;10.704;2023-06-22T03:16:21;92642.59;;;17.94;99.77
52735;BME280;38631;47.572;10.704;2023-06-22T03:18:50;92635.47;;;18.02;99.23
52735;BME280;38631;47.572;10.704;2023-06-22T03:21:17;92647.25;;;17.97;99.96
52735;BME280;38631;47.572;10.704;2023-06-22T03:23:48;92628.41;;;18.13;97.99
52735;BME280;38631;47.572;10.704;2023-06-22T03:26:17;92633.69;;;18.41;97.07
52735;BME280;38631;47.572;10.704;2023-06-22T03:28:43;92633.38;;;17.63;100.00
52735;BME280;38631;47.572;10.704;2023-06-22T03:31:14;92628.34;;;17.78;100.00
52735;BME280;38631;47.572;10.704;2023-06-22T03:33:43;92633.91;;;17.69;100.00
52735;BME280;38631;47.572;10.704;2023-06-22T03:36:18;92629.44;;;17.45;100.00
52735;BME280;38631;47.572;10.704;2023-06-22T03:38:52;92626.09;;;17.48;100.00
52735;BME280;38631;47.572;10.704;2023-06-22T03:41:18;92638.06;;;17.82;100.00
52735;BME280;38631;47.572;10.704;2023-06-22T03:43:47;92640.66;;;17.95;100.00
52735;BME280;38631;47.572;10.704;2023-06-22T03:46:13;92643.44;;;17.66;100.00
52735;BME280;38631;47.572;10.704;2023-06-22T03:48:46;92639.75;;;17.43;100.00
52735;BME280;38631;47.572;10.704;2023-06-22T03:51:15;92646.91;;;17.83;100.00
52735;BME280;38631;47.572;10.704;2023-06-22T03:53:45;92633.72;;;17.78;100.00
52735;BME280;38631;47.572;10.704;2023-06-22T03:56:11;92643.94;;;17.56;100.00
52735;BME280;38631;47.572;10.704;2023-06-22T03:58:45;92628.91;;;17.83;100.00
52735;BME280;38631;47.572;10.704;2023-06-22T04:01:14;92640.91;;;17.58;100.00
52735;BME280;38631;47.572;10.704;2023-06-22T04:03:45;92628.41;;;17.49;100.00
52735;BME280;38631;47.572;10.704;2023-06-22T04:06:15;92629.22;;;17.66;100.00
52735;BME280;38631;47.572;10.704;2023-06-22T04:08:45;92619.47;;;17.30;100.00
52735;BME280;38631;47.572;10.704;2023-06-22T04:11:19;92628.53;;;17.53;100.00
52735;BME280;38631;47.572;10.704;2023-06-22T04:13:45;92626.88;;;17.48;100.00
52735;BME280;38631;47.572;10.704;2023-06-22T04:16:17;92611.97;;;17.67;100.00
52735;BME280;38631;47.572;10.704;2023-06-22T04:18:49;92624.19;;;17.48;100.00
52735;BME280;38631;47.572;10.704;2023-06-22T04:21:15;92631.69;;;17.27;100.00
52735;BME280;38631;47.572;10.704;2023-06-22T04:23:41;92618.03;;;17.48;100.00
52735;BME280;38631;47.572;10.704;2023-06-22T04:26:13;92630.53;;;17.88;100.00
52735;BME280;38631;47.572;10.704;2023-06-22T04:28:57;92623.06;;;17.65;100.00
52735;BME280;38631;47.572;10.704;2023-06-22T04:31:24;92614.09;;;17.30;100.00
52735;BME280;38631;47.572;10.704;2023-06-22T04:37:42;92617.69;;;17.49;100.00
52735;BME280;38631;47.572;10.704;2023-06-22T04:40:08;92610.25;;;17.90;100.00
52735;BME280;38631;47.572;10.704;2023-06-22T04:42:38;92627.47;;;18.21;100.00
52735;BME280;38631;47.572;10.704;2023-06-22T04:45:04;92626.94;;;17.52;100.00
52735;BME280;38631;47.572;10.704;2023-06-22T04:47:29;92624.97;;;17.65;100.00
52735;BME280;38631;47.572;10.704;2023-06-22T04:49:55;92620.28;;;17.46;100.00
52735;BME280;38631;47.572;10.704;2023-06-22T04:52:20;92623.69;;;17.90;100.00
52735;BME280;38631;47.572;10.704;2023-06-22T04:54:46;92621.69;;;17.87;100.00
52735;BME280;38631;47.572;10.704;2023-06-22T04:57:15;92618.91;;;18.00;100.00
52735;BME280;38631;47.572;10.704;2023-06-22T04:59:41;92622.56;;;17.76;100.00
52735;BME280;38631;47.572;10.704;2023-06-22T05:02:07;92613.59;;;18.19;100.00
52735;BME280;38631;47.572;10.704;2023-06-22T05:04:33;92625.59;;;18.06;100.00
52735;BME280;38631;47.572;10.704;2023-06-22T05:07:01;92634.06;;;18.08;100.00
52735;BME280;38631;47.572;10.704;2023-06-22T05:09:27;92631.28;;;18.55;100.00
52735;BME280;38631;47.572;10.704;2023-06-22T05:11:52;92627.72;;;18.87;100.00
52735;BME280;38631;47.572;10.704;2023-06-22T05:14:18;92631.75;;;18.77;100.00
52735;BME280;38631;47.572;10.704;2023-06-22T05:16:45;92625.03;;;19.06;100.00
52735;BME280;38631;47.572;10.704;2023-06-22T05:19:10;92622.25;;;19.22;99.00
52735;BME280;38631;47.572;10.704;2023-06-22T05:21:36;92624.75;;;19.11;99.37
52735;BME280;38631;47.572;10.704;2023-06-22T05:24:02;92624.75;;;19.11;99.48
52735;BME280;38631;47.572;10.704;2023-06-22T05:26:31;92618.69;;;19.18;98.51
52735;BME280;38631;47.572;10.704;2023-06-22T05:28:56;92629.03;;;19.58;97.13
52735;BME280;38631;47.572;10.704;2023-06-22T05:31:23;92623.28;;;19.79;93.71
52735;BME280;38631;47.572;10.704;2023-06-22T05:33:50;92618.00;;;19.87;92.27
52735;BME280;38631;47.572;10.704;2023-06-22T05:36:17;92627.38;;;19.96;92.14
52735;BME280;38631;47.572;10.704;2023-06-22T05:38:46;92614.47;;;19.82;91.44
52735;BME280;38631;47.572;10.704;2023-06-22T05:41:12;92616.53;;;20.16;90.49
52735;BME280;38631;47.572;10.704;2023-06-22T05:43:40;92616.50;;;19.89;91.15
52735;BME280;38631;47.572;10.704;2023-06-22T05:46:09;92607.53;;;20.08;90.52
52735;BME280;38631;47.572;10.704;2023-06-22T05:48:36;92599.94;;;20.40;88.91
52735;BME280;38631;47.572;10.704;2023-06-22T05:51:02;92607.97;;;20.63;88.51
52735;BME280;38631;47.572;10.704;2023-06-22T05:53:30;92602.66;;;20.70;88.36
52735;BME280;38631;47.572;10.704;2023-06-22T05:56:04;92590.63;;;20.38;90.86
52735;BME280;38631;47.572;10.704;2023-06-22T05:58:35;92591.19;;;20.50;90.39
52735;BME280;38631;47.572;10.704;2023-06-22T06:01:00;92595.59;;;20.32;92.50
52735;BME280;38631;47.572;10.704;2023-06-22T06:03:27;92593.25;;;20.57;89.41
52735;BME280;38631;47.572;10.704;2023-06-22T06:05:57;92577.59;;;20.70;88.21
52735;BME280;38631;47.572;10.704;2023-06-22T06:08:23;92588.50;;;20.77;87.77
52735;BME280;38631;47.572;10.704;2023-06-22T06:10:49;92581.59;;;20.83;87.64
52735;BME280;38631;47.572;10.704;2023-06-22T06:13:14;92587.38;;;21.15;87.32
52735;BME280;38631;47.572;10.704;2023-06-22T06:15:41;92575.13;;;21.25;86.66
52735;BME280;38631;47.572;10.704;2023-06-22T06:18:13;92598.66;;;21.25;87.44
52735;BME280;38631;47.572;10.704;2023-06-22T06:20:38;92588.84;;;21.43;85.55
52735;BME280;38631;47.572;10.704;2023-06-22T06:23:04;92573.84;;;21.12;88.34
52735;BME280;38631;47.572;10.704;2023-06-22T06:25:30;92590.38;;;21.44;87.08
52735;BME280;38631;47.572;10.704;2023-06-22T06:27:56;92588.03;;;21.39;86.70
52735;BME280;38631;47.572;10.704;2023-06-22T06:30:26;92599.88;;;21.68;86.01
52735;BME280;38631;47.572;10.704;2023-06-22T06:32:51;92591.13;;;21.82;86.27
52735;BME280;38631;47.572;10.704;2023-06-22T06:35:16;92601.47;;;21.73;86.89
52735;BME280;38631;47.572;10.704;2023-06-22T06:37:44;92591.91;;;21.83;86.53
52735;BME280;38631;47.572;10.704;2023-06-22T06:40:13;92600.44;;;21.88;86.85
52735;BME280;38631;47.572;10.704;2023-06-22T06:42:49;92598.81;;;22.25;85.36
52735;BME280;38631;47.572;10.704;2023-06-22T06:45:25;92593.88;;;22.41;83.42
52735;BME280;38631;47.572;10.704;2023-06-22T06:47:51;92589.06;;;22.79;82.18
52735;BME280;38631;47.572;10.704;2023-06-22T06:50:17;92585.50;;;22.64;80.68
52735;BME280;38631;47.572;10.704;2023-06-22T06:52:43;92586.63;;;22.59;77.70
52735;BME280;38631;47.572;10.704;2023-06-22T06:55:09;92586.34;;;22.79;76.03
52735;BME280;38631;47.572;10.704;2023-06-22T06:57:40;92591.41;;;22.80;73.94
52735;BME280;38631;47.572;10.704;2023-06-22T07:00:08;92594.06;;;22.77;73.39
52735;BME280;38631;47.572;10.704;2023-06-22T07:02:42;92589.38;;;22.67;71.26
52735;BME280;38631;47.572;10.704;2023-06-22T07:05:12;92596.09;;;22.91;72.37
52735;BME280;38631;47.572;10.704;2023-06-22T07:07:38;92593.91;;;23.18;72.08
52735;BME280;38631;47.572;10.704;2023-06-22T07:10:05;92595.50;;;23.40;72.45
52735;BME280;38631;47.572;10.704;2023-06-22T07:12:30;92589.69;;;23.49;72.33
52735;BME280;38631;47.572;10.704;2023-06-22T07:15:06;92587.78;;;23.64;73.96
52735;BME280;38631;47.572;10.704;2023-06-22T07:17:35;92589.72;;;23.63;75.69
52735;BME280;38631;47.572;10.704;2023-06-22T07:20:01;92587.00;;;23.49;75.75
52735;BME280;38631;47.572;10.704;2023-06-22T07:22:27;92584.25;;;23.27;76.81
52735;BME280;38631;47.572;10.704;2023-06-22T07:24:52;92574.25;;;23.60;76.92
52735;BME280;38631;47.572;10.704;2023-06-22T07:27:18;92581.97;;;23.69;75.55
52735;BME280;38631;47.572;10.704;2023-06-22T07:29:46;92594.44;;;24.06;75.54
52735;BME280;38631;47.572;10.704;2023-06-22T07:38:50;92575.03;;;24.29;73.81
52735;BME280;38631;47.572;10.704;2023-06-22T07:41:15;92582.44;;;24.10;72.61
52735;BME280;38631;47.572;10.704;2023-06-22T07:43:41;92573.06;;;24.36;71.89
52735;BME280;38631;47.572;10.704;2023-06-22T07:46:06;92571.50;;;24.43;72.58
52735;BME280;38631;47.572;10.704;2023-06-22T07:48:32;92571.13;;;24.66;72.02
52735;BME280;38631;47.572;10.704;2023-06-22T07:50:57;92569.56;;;24.57;71.12
52735;BME280;38631;47.572;10.704;2023-06-22T07:53:23;92572.28;;;24.40;70.39
52735;BME280;38631;47.572;10.704;2023-06-22T07:55:49;92576.56;;;24.30;70.70
52735;BME280;38631;47.572;10.704;2023-06-22T07:58:15;92566.09;;;24.25;69.36
52735;BME280;38631;47.572;10.704;2023-06-22T08:00:44;92562.22;;;24.47;69.52
52735;BME280;38631;47.572;10.704;2023-06-22T08:03:09;92564.53;;;24.45;68.63
52735;BME280;38631;47.572;10.704;2023-06-22T08:05:35;92572.28;;;24.32;68.40
52735;BME280;38631;47.572;10.704;2023-06-22T08:08:00;92572.34;;;24.25;68.29
52735;BME280;38631;47.572;10.704;2023-06-22T08:10:26;92574.25;;;24.32;67.90
52735;BME280;38631;47.572;10.704;2023-06-22T08:12:51;92574.25;;;24.53;69.68
52735;BME280;38631;47.572;10.704;2023-06-22T08:15:17;92568.41;;;24.66;67.85
52735;BME280;38631;47.572;10.704;2023-06-22T08:17:44;92579.28;;;24.51;67.72
52735;BME280;38631;47.572;10.704;2023-06-22T08:20:10;92566.81;;;24.72;68.89
52735;BME280;38631;47.572;10.704;2023-06-22T08:22:40;92568.75;;;24.78;68.77
52735;BME280;38631;47.572;10.704;2023-06-22T08:25:06;92571.44;;;24.75;69.62
52735;BME280;38631;47.572;10.704;2023-06-22T08:27:31;92568.75;;;24.78;70.26
52735;BME280;38631;47.572;10.704;2023-06-22T08:29:58;92565.66;;;24.69;71.10
52735;BME280;38631;47.572;10.704;2023-06-22T08:32:25;92564.84;;;24.83;70.49
52735;BME280;38631;47.572;10.704;2023-06-22T08:34:54;92561.00;;;24.73;69.74
52735;BME280;38631;47.572;10.704;2023-06-22T08:37:20;92564.91;;;24.62;69.81
52735;BME280;38631;47.572;10.704;2023-06-22T08:39:45;92553.22;;;24.72;69.30
52735;BME280;38631;47.572;10.704;2023-06-22T08:42:11;92563.28;;;24.82;69.31
52735;BME280;38631;47.572;10.704;2023-06-22T08:44:37;92559.81;;;24.78;68.25
52735;BME280;38631;47.572;10.704;2023-06-22T08:47:02;92564.41;;;24.92;68.67
52735;BME280;38631;47.572;10.704;2023-06-22T08:49:28;92567.91;;;24.92;67.98
52735;BME280;38631;47.572;10.704;2023-06-22T08:51:54;92568.72;;;24.86;69.15
52735;BME280;38631;47.572;10.704;2023-06-22T08:54:21;92576.53;;;24.73;67.59
52735;BME280;38631;47.572;10.704;2023-06-22T08:56:46;92569.47;;;24.83;69.00
52735;BME280;38631;47.572;10.704;2023-06-22T08:59:12;92568.72;;;24.86;67.92
52735;BME280;38631;47.572;10.704;2023-06-22T09:01:37;92564.44;;;24.85;67.89
52735;BME280;38631;47.572;10.704;2023-06-22T09:04:02;92573.31;;;24.99;64.92
52735;BME280;38631;47.572;10.704;2023-06-22T09:06:31;92565.44;;;25.27;62.63
52735;BME280;38631;47.572;10.704;2023-06-22T09:08:56;92564.69;;;25.26;60.22
52735;BME280;38631;47.572;10.704;2023-06-22T09:11:25;92573.06;;;25.53;62.77
52735;BME280;38631;47.572;10.704;2023-06-22T09:13:50;92576.19;;;25.52;61.09
52735;BME280;38631;47.572;10.704;2023-06-22T09:16:17;92574.16;;;25.67;61.59
52735;BME280;38631;47.572;10.704;2023-06-22T09:18:47;92567.41;;;25.85;61.47
52735;BME280;38631;47.572;10.704;2023-06-22T09:21:12;92571.28;;;25.92;59.73
52735;BME280;38631;47.572;10.704;2023-06-22T09:23:37;92570.53;;;25.88;60.37
52735;BME280;38631;47.572;10.704;2023-06-22T09:26:03;92556.66;;;25.68;58.71
52735;BME280;38631;47.572;10.704;2023-06-22T09:28:29;92558.88;;;25.87;58.98
52735;BME280;38631;47.572;10.704;2023-06-22T09:30:55;92566.94;;;25.98;59.43
52735;BME280;38631;47.572;10.704;2023-06-22T09:33:23;92558.44;;;25.92;62.50
52735;BME280;38631;47.572;10.704;2023-06-22T09:35:49;92567.22;;;26.14;61.67
52735;BME280;38631;47.572;10.704;2023-06-22T09:38:16;92558.78;;;25.98;63.38
52735;BME280;38631;47.572;10.704;2023-06-22T09:44:20;92569.59;;;26.08;65.82
52735;BME280;38631;47.572;10.704;2023-06-22T09:46:46;92564.91;;;26.09;65.60
52735;BME280;38631;47.572;10.704;2023-06-22T09:49:20;92554.91;;;25.99;66.59
52735;BME280;38631;47.572;10.704;2023-06-22T09:51:51;92550.53;;;26.08;65.47
52735;BME280;38631;47.572;10.704;2023-06-22T09:54:20;92560.63;;;26.53;64.88
52735;BME280;38631;47.572;10.704;2023-06-22T09:56:45;92551.25;;;26.58;65.59
52735;BME280;38631;47.572;10.704;2023-06-22T09:59:14;92550.66;;;26.39;66.42
52735;BME280;38631;47.572;10.704;2023-06-22T10:01:39;92556.50;;;26.76;65.22
52735;BME280;38631;47.572;10.704;2023-06-22T10:04:11;92560.97;;;26.93;65.23
52735;BME280;38631;47.572;10.704;2023-06-22T10:06:49;92566.03;;;26.94;66.22
52735;BME280;38631;47.572;10.704;2023-06-22T10:09:17;92567.91;;;26.63;66.18
52735;BME280;38631;47.572;10.704;2023-06-22T10:11:42;92564.47;;;26.59;66.40
52735;BME280;38631;47.572;10.704;2023-06-22T10:14:11;92577.91;;;26.77;63.35
52735;BME280;38631;47.572;10.704;2023-06-22T10:19:28;92557.97;;;27.18;56.60
52735;BME280;38631;47.572;10.704;2023-06-22T10:21:53;92567.94;;;27.32;52.30
52735;BME280;38631;47.572;10.704;2023-06-22T10:24:20;92563.16;;;27.40;51.95
52735;BME280;38631;47.572;10.704;2023-06-22T10:26:48;92561.13;;;27.44;51.95
52735;BME280;38631;47.572;10.704;2023-06-22T10:29:14;92570.78;;;27.52;51.10
52735;BME280;38631;47.572;10.704;2023-06-22T10:31:42;92576.41;;;27.68;54.19
52735;BME280;38631;47.572;10.704;2023-06-22T10:34:07;92560.59;;;27.56;54.55
52735;BME280;38631;47.572;10.704;2023-06-22T10:36:35;92577.72;;;27.29;55.68
52735;BME280;38631;47.572;10.704;2023-06-22T10:39:00;92580.22;;;27.44;56.09
52735;BME280;38631;47.572;10.704;2023-06-22T10:41:27;92581.91;;;27.65;55.58
52735;BME280;38631;47.572;10.704;2023-06-22T10:43:55;92588.28;;;27.54;53.29
52735;BME280;38631;47.572;10.704;2023-06-22T10:46:21;92589.47;;;27.80;53.88
52735;BME280;38631;47.572;10.704;2023-06-22T10:48:46;92575.59;;;27.71;53.16
52735;BME280;38631;47.572;10.704;2023-06-22T10:51:15;92581.09;;;27.68;54.20
52735;BME280;38631;47.572;10.704;2023-06-22T10:53:40;92577.59;;;27.67;52.37
52735;BME280;38631;47.572;10.704;2023-06-22T10:56:11;92572.44;;;27.73;51.66
52735;BME280;38631;47.572;10.704;2023-06-22T10:58:37;92581.50;;;27.93;52.45
52735;BME280;38631;47.572;10.704;2023-06-22T11:01:08;92586.50;;;27.71;51.59
52735;BME280;38631;47.572;10.704;2023-06-22T11:03:34;92580.91;;;27.78;52.75
52735;BME280;38631;47.572;10.704;2023-06-22T11:05:59;92573.78;;;28.62;54.68
52735;BME280;38631;47.572;10.704;2023-06-22T11:08:25;92583.78;;;28.69;53.58
52735;BME280;38631;47.572;10.704;2023-06-22T11:10:51;92577.56;;;28.69;54.00
52735;BME280;38631;47.572;10.704;2023-06-22T11:13:17;92569.00;;;29.10;55.34
52735;BME280;38631;47.572;10.704;2023-06-22T11:15:43;92580.13;;;28.99;55.44
52735;BME280;38631;47.572;10.704;2023-06-22T11:18:14;92572.09;;;28.89;55.30
52735;BME280;38631;47.572;10.704;2023-06-22T11:20:40;92571.91;;;28.99;55.57
52735;BME280;38631;47.572;10.704;2023-06-22T11:23:06;92569.03;;;29.06;55.07
52735;BME280;38631;47.572;10.704;2023-06-22T11:25:34;92572.09;;;28.89;55.44
52735;BME280;38631;47.572;10.704;2023-06-22T11:28:04;92579.41;;;28.75;55.59
52735;BME280;38631;47.572;10.704;2023-06-22T11:30:42;92570.84;;;28.93;54.52
52735;BME280;38631;47.572;10.704;2023-06-22T11:33:07;92564.69;;;29.29;54.35
52735;BME280;38631;47.572;10.704;2023-06-22T11:35:32;92564.75;;;28.85;52.74
52735;BME280;38631;47.572;10.704;2023-06-22T11:38:01;92556.69;;;28.78;52.47
52735;BME280;38631;47.572;10.704;2023-06-22T11:40:28;92556.66;;;29.22;53.55
52735;BME280;38631;47.572;10.704;2023-06-22T11:42:54;92554.25;;;29.24;55.01
52735;BME280;38631;47.572;10.704;2023-06-22T11:45:19;92551.09;;;29.05;55.31
52735;BME280;38631;47.572;10.704;2023-06-22T11:47:45;92549.13;;;28.86;56.10
52735;BME280;38631;47.572;10.704;2023-06-22T11:50:11;92558.88;;;28.87;55.50
52735;BME280;38631;47.572;10.704;2023-06-22T11:52:36;92548.13;;;28.96;54.08
52735;BME280;38631;47.572;10.704;2023-06-22T11:55:02;92556.00;;;28.74;55.30
52735;BME280;38631;47.572;10.704;2023-06-22T11:57:29;92554.38;;;28.97;53.50
52735;BME280;38631;47.572;10.704;2023-06-22T11:59:55;92558.78;;;28.71;51.93
52735;BME280;38631;47.572;10.704;2023-06-22T12:02:20;92560.16;;;28.59;51.75
52735;BME280;38631;47.572;10.704;2023-06-22T12:04:45;92561.88;;;28.73;53.55
52735;BME280;38631;47.572;10.704;2023-06-22T12:07:11;92556.09;;;28.47;51.23
52735;BME280;38631;47.572;10.704;2023-06-22T12:09:37;92555.09;;;28.34;50.54
52735;BME280;38631;47.572;10.704;2023-06-22T12:12:02;92558.19;;;28.36;51.82
52735;BME280;38631;47.572;10.704;2023-06-22T12:14:28;92556.50;;;28.22;50.76
52735;BME280;38631;47.572;10.704;2023-06-22T12:16:54;92554.41;;;28.30;49.88
52735;BME280;38631;47.572;10.704;2023-06-22T12:19:19;92552.72;;;28.36;49.88
52735;BME280;38631;47.572;10.704;2023-06-22T12:21:45;92549.00;;;28.26;50.26
52735;BME280;38631;47.572;10.704;2023-06-22T12:24:11;92556.19;;;28.16;49.65
52735;BME280;38631;47.572;10.704;2023-06-22T12:26:36;92550.38;;;28.14;50.19
52735;BME280;38631;47.572;10.704;2023-06-22T12:29:02;92545.31;;;28.36;50.46
52735;BME280;38631;47.572;10.704;2023-06-22T12:31:27;92537.03;;;28.20;51.21
52735;BME280;38631;47.572;10.704;2023-06-22T12:33:53;92535.53;;;28.15;53.54
52735;BME280;38631;47.572;10.704;2023-06-22T12:36:18;92538.25;;;28.15;54.54
52735;BME280;38631;47.572;10.704;2023-06-22T12:38:43;92534.66;;;28.22;51.45
52735;BME280;38631;47.572;10.704;2023-06-22T12:41:09;92533.44;;;28.23;50.98
52735;BME280;38631;47.572;10.704;2023-06-22T12:43:37;92531.78;;;28.29;51.28
52735;BME280;38631;47.572;10.704;2023-06-22T12:46:05;92540.47;;;28.48;50.95
52735;BME280;38631;47.572;10.704;2023-06-22T12:48:31;92534.38;;;28.36;51.21
52735;BME280;38631;47.572;10.704;2023-06-22T12:50:56;92548.22;;;28.26;52.55
52735;BME280;38631;47.572;10.704;2023-06-22T12:53:25;92536.56;;;28.02;51.72
52735;BME280;38631;47.572;10.704;2023-06-22T12:55:52;92537.78;;;27.97;52.49
52735;BME280;38631;47.572;10.704;2023-06-22T12:58:49;92545.66;;;27.91;52.12
52735;BME280;38631;47.572;10.704;2023-06-22T13:01:14;92539.09;;;28.12;53.29
52735;BME280;38631;47.572;10.704;2023-06-22T13:03:41;92538.38;;;27.85;52.49
52735;BME280;38631;47.572;10.704;2023-06-22T13:06:07;92548.84;;;27.86;53.38
52735;BME280;38631;47.572;10.704;2023-06-22T13:08:41;92549.66;;;27.87;53.59
52735;BME280;38631;47.572;10.704;2023-06-22T13:11:10;92558.31;;;27.82;54.05
52735;BME280;38631;47.572;10.704;2023-06-22T13:13:39;92547.47;;;27.74;53.76
52735;BME280;38631;47.572;10.704;2023-06-22T13:16:07;92544.66;;;27.82;53.82